sensor_id;sensor_type;location;lat;lon;timestamp;P1;durP1;ratioP1;P2;durP2;ratioP2
40717;SDS011;26405;51.850;-2.246;2023-08-06T00:05:03;4.78;;;2.42;;
40717;SDS011;26405;51.850;-2.246;2023-08-06T00:07:28;7.57;;;3.53;;
40717;SDS011;26405;51.850;-2.246;2023-08-06T00:09:53;6.22;;;2.70;;
40717;SDS011;26405;51.850;-2.246;2023-08-06T00:12:18;6.60;;;2.72;;
40717;SDS011;26405;51.850;-2.246;2023-08-06T00:14:44;8.40;;;2.63;;
40717;SDS011;26405;51.850;-2.246;2023-08-06T00:17:10;8.05;;;3.00;;
40717;SDS011;26405;51.850;-2.246;2023-08-06T00:19:35;4.75;;;2.70;;
40717;SDS011;26405;51.850;-2.246;2023-08-06T00:22:00;5.40;;;2.75;;
40717;SDS011;26405;51.850;-2.246;2023-08-06T00:24:27;7.57;;;2.75;;
40717;SDS011;26405;51.850;-2.246;2023-08-06T00:26:52;5.07;;;2.70;;
40717;SDS011;26405;51.850;-2.246;2023-08-06T00:29:17;5.60;;;2.78;;
40717;SDS011;26405;51.850;-2.246;2023-08-06T00:31:42;6.15;;;2.80;;
40717;SDS011;26405;51.850;-2.246;2023-08-06T00:34:08;5.18;;;2.75;;
40717;SDS011;26405;51.850;-2.246;2023-08-06T00:36:33;5.40;;;2.72;;
40717;SDS011;26405;51.850;-2.246;2023-08-06T00:38:58;6.22;;;3.03;;
40717;SDS011;26405;51.850;-2.246;2023-08-06T00:41:23;6.18;;;2.97;;
40717;SDS011;26405;51.850;-2.246;2023-08-06T00:43:49;6.68;;;2.85;;
40717;SDS011;26405;51.850;-2.246;2023-08-06T00:46:14;4.60;;;2.60;;
40717;SDS011;26405;51.850;-2.246;2023-08-06T00:48:40;6.35;;;2.92;;
40717;SDS011;26405;51.850;-2.246;2023-08-06T00:51:05;6.00;;;2.92;;
40717;SDS011;26405;51.850;-2.246;2023-08-06T00:53:31;5.53;;;2.90;;
40717;SDS011;26405;51.850;-2.246;2023-08-06T00:55:56;6.80;;;2.70;;
40717;SDS011;26405;51.850;-2.246;2023-08-06T00:58:22;7.18;;;3.10;;
40717;SDS011;26405;51.850;-2.246;2023-08-06T01:00:47;7.43;;;2.85;;
40717;SDS011;26405;51.850;-2.246;2023-08-06T01:03:13;8.48;;;3.15;;
40717;SDS011;26405;51.850;-2.246;2023-08-06T01:05:38;7.88;;;2.95;;
40717;SDS011;26405;51.850;-2.246;2023-08-06T01:13:32;8.68;;;2.90;;
40717;SDS011;26405;51.850;-2.246;2023-08-06T01:15:58;5.70;;;2.85;;
40717;SDS011;26405;51.850;-2.246;2023-08-06T01:18:25;7.40;;;2.83;;
40717;SDS011;26405;51.850;-2.246;2023-08-06T01:20:50;4.22;;;2.67;;
40717;SDS011;26405;51.850;-2.246;2023-08-06T01:23:15;7.38;;;2.80;;
40717;SDS011;26405;51.850;-2.246;2023-08-06T01:31:04;5.55;;;2.80;;
40717;SDS011;26405;51.850;-2.246;2023-08-06T01:33:32;5.80;;;2.97;;
40717;SDS011;26405;51.850;-2.246;2023-08-06T01:35:58;5.05;;;2.53;;
40717;SDS011;26405;51.850;-2.246;2023-08-06T01:38:24;6.63;;;3.00;;
40717;SDS011;26405;51.850;-2.246;2023-08-06T01:40:49;7.35;;;2.75;;
40717;SDS011;26405;51.850;-2.246;2023-08-06T01:43:15;6.30;;;2.80;;
40717;SDS011;26405;51.850;-2.246;2023-08-06T01:45:40;6.72;;;3.03;;
40717;SDS011;26405;51.850;-2.246;2023-08-06T01:48:05;5.83;;;2.73;;
40717;SDS011;26405;51.850;-2.246;2023-08-06T01:50:30;7.57;;;3.13;;
40717;SDS011;26405;51.850;-2.246;2023-08-06T01:52:56;5.05;;;2.50;;
40717;SDS011;26405;51.850;-2.246;2023-08-06T01:55:21;6.77;;;3.07;;
40717;SDS011;26405;51.850;-2.246;2023-08-06T01:57:46;4.85;;;2.70;;
40717;SDS011;26405;51.850;-2.246;2023-08-06T02:00:12;5.63;;;2.80;;
40717;SDS011;26405;51.850;-2.246;2023-08-06T02:02:37;8.98;;;2.80;;
40717;SDS011;26405;51.850;-2.246;2023-08-06T02:05:02;9.27;;;3.03;;
40717;SDS011;26405;51.850;-2.246;2023-08-06T02:07:28;7.00;;;2.67;;
40717;SDS011;26405;51.850;-2.246;2023-08-06T02:09:53;5.30;;;2.30;;
40717;SDS011;26405;51.850;-2.246;2023-08-06T02:12:18;5.78;;;2.35;;
40717;SDS011;26405;51.850;-2.246;2023-08-06T02:14:43;7.78;;;2.30;;
40717;SDS011;26405;51.850;-2.246;2023-08-06T02:17:09;5.97;;;2.40;;
40717;SDS011;26405;51.850;-2.246;2023-08-06T02:19:34;6.28;;;2.70;;
40717;SDS011;26405;51.850;-2.246;2023-08-06T02:21:59;3.00;;;2.33;;
40717;SDS011;26405;51.850;-2.246;2023-08-06T02:24:24;4.47;;;2.38;;
40717;SDS011;26405;51.850;-2.246;2023-08-06T02:26:50;6.25;;;2.28;;
40717;SDS011;26405;51.850;-2.246;2023-08-06T02:29:17;6.25;;;2.22;;
40717;SDS011;26405;51.850;-2.246;2023-08-06T02:31:42;4.75;;;2.15;;
40717;SDS011;26405;51.850;-2.246;2023-08-06T02:34:07;4.22;;;2.28;;
40717;SDS011;26405;51.850;-2.246;2023-08-06T02:36:32;3.63;;;2.10;;
40717;SDS011;26405;51.850;-2.246;2023-08-06T02:38:58;3.03;;;2.25;;
40717;SDS011;26405;51.850;-2.246;2023-08-06T02:41:23;4.60;;;2.43;;
40717;SDS011;26405;51.850;-2.246;2023-08-06T02:43:48;3.60;;;2.10;;
40717;SDS011;26405;51.850;-2.246;2023-08-06T02:46:13;5.88;;;2.20;;
40717;SDS011;26405;51.850;-2.246;2023-08-06T02:48:38;6.20;;;2.53;;
40717;SDS011;26405;51.850;-2.246;2023-08-06T02:51:04;6.87;;;2.30;;
40717;SDS011;26405;51.850;-2.246;2023-08-06T02:53:29;6.80;;;2.40;;
40717;SDS011;26405;51.850;-2.246;2023-08-06T02:55:54;3.97;;;2.23;;
40717;SDS011;26405;51.850;-2.246;2023-08-06T02:58:20;4.82;;;2.50;;
40717;SDS011;26405;51.850;-2.246;2023-08-06T03:01:05;4.28;;;2.22;;
40717;SDS011;26405;51.850;-2.246;2023-08-06T03:03:32;4.30;;;2.20;;
40717;SDS011;26405;51.850;-2.246;2023-08-06T03:05:57;5.75;;;2.25;;
40717;SDS011;26405;51.850;-2.246;2023-08-06T03:08:23;5.28;;;2.03;;
40717;SDS011;26405;51.850;-2.246;2023-08-06T03:10:51;6.25;;;2.42;;
40717;SDS011;26405;51.850;-2.246;2023-08-06T03:13:17;3.38;;;2.17;;
40717;SDS011;26405;51.850;-2.246;2023-08-06T03:15:43;4.97;;;2.30;;
40717;SDS011;26405;51.850;-2.246;2023-08-06T03:18:08;6.32;;;2.20;;
40717;SDS011;26405;51.850;-2.246;2023-08-06T03:20:33;3.75;;;2.30;;
40717;SDS011;26405;51.850;-2.246;2023-08-06T03:22:59;3.30;;;2.20;;
40717;SDS011;26405;51.850;-2.246;2023-08-06T03:25:24;3.25;;;2.22;;
40717;SDS011;26405;51.850;-2.246;2023-08-06T03:27:50;4.53;;;2.25;;
40717;SDS011;26405;51.850;-2.246;2023-08-06T03:30:15;6.38;;;2.20;;
40717;SDS011;26405;51.850;-2.246;2023-08-06T03:32:41;4.05;;;2.28;;
40717;SDS011;26405;51.850;-2.246;2023-08-06T03:35:06;4.43;;;2.00;;
40717;SDS011;26405;51.850;-2.246;2023-08-06T03:37:31;3.72;;;2.08;;
40717;SDS011;26405;51.850;-2.246;2023-08-06T03:39:57;3.58;;;2.15;;
40717;SDS011;26405;51.850;-2.246;2023-08-06T03:42:22;6.07;;;2.20;;
40717;SDS011;26405;51.850;-2.246;2023-08-06T03:44:47;6.93;;;2.50;;
40717;SDS011;26405;51.850;-2.246;2023-08-06T03:47:13;5.10;;;2.20;;
40717;SDS011;26405;51.850;-2.246;2023-08-06T03:49:38;3.35;;;2.30;;
40717;SDS011;26405;51.850;-2.246;2023-08-06T03:52:04;7.90;;;2.20;;
40717;SDS011;26405;51.850;-2.246;2023-08-06T03:54:29;5.00;;;2.40;;
40717;SDS011;26405;51.850;-2.246;2023-08-06T03:56:55;6.80;;;2.53;;
40717;SDS011;26405;51.850;-2.246;2023-08-06T03:59:20;4.00;;;2.10;;
40717;SDS011;26405;51.850;-2.246;2023-08-06T04:01:45;4.25;;;2.28;;
40717;SDS011;26405;51.850;-2.246;2023-08-06T04:04:10;5.65;;;2.58;;
40717;SDS011;26405;51.850;-2.246;2023-08-06T04:06:36;5.32;;;2.13;;
40717;SDS011;26405;51.850;-2.246;2023-08-06T04:09:01;4.75;;;2.30;;
40717;SDS011;26405;51.850;-2.246;2023-08-06T04:11:27;6.32;;;2.50;;
40717;SDS011;26405;51.850;-2.246;2023-08-06T04:13:52;4.57;;;2.20;;
40717;SDS011;26405;51.850;-2.246;2023-08-06T04:18:44;5.55;;;2.03;;
40717;SDS011;26405;51.850;-2.246;2023-08-06T04:21:10;5.25;;;2.35;;
40717;SDS011;26405;51.850;-2.246;2023-08-06T04:23:36;8.15;;;2.45;;
40717;SDS011;26405;51.850;-2.246;2023-08-06T04:26:01;5.85;;;2.28;;
40717;SDS011;26405;51.850;-2.246;2023-08-06T04:28:26;3.85;;;2.25;;
40717;SDS011;26405;51.850;-2.246;2023-08-06T04:30:52;4.28;;;2.25;;
40717;SDS011;26405;51.850;-2.246;2023-08-06T04:33:18;3.67;;;2.05;;
40717;SDS011;26405;51.850;-2.246;2023-08-06T04:35:44;3.78;;;2.28;;
40717;SDS011;26405;51.850;-2.246;2023-08-06T04:38:09;3.80;;;2.40;;
40717;SDS011;26405;51.850;-2.246;2023-08-06T04:40:35;3.45;;;1.98;;
40717;SDS011;26405;51.850;-2.246;2023-08-06T04:43:00;3.30;;;2.10;;
40717;SDS011;26405;51.850;-2.246;2023-08-06T04:45:26;5.57;;;2.17;;
40717;SDS011;26405;51.850;-2.246;2023-08-06T04:47:51;4.80;;;2.10;;
40717;SDS011;26405;51.850;-2.246;2023-08-06T04:50:16;7.53;;;2.30;;
40717;SDS011;26405;51.850;-2.246;2023-08-06T04:52:42;3.55;;;2.28;;
40717;SDS011;26405;51.850;-2.246;2023-08-06T04:55:07;10.23;;;2.40;;
40717;SDS011;26405;51.850;-2.246;2023-08-06T04:57:32;5.55;;;2.17;;
40717;SDS011;26405;51.850;-2.246;2023-08-06T04:59:57;5.00;;;2.38;;
40717;SDS011;26405;51.850;-2.246;2023-08-06T05:02:23;4.07;;;2.45;;
40717;SDS011;26405;51.850;-2.246;2023-08-06T05:04:48;6.07;;;1.97;;
40717;SDS011;26405;51.850;-2.246;2023-08-06T05:07:13;4.33;;;2.30;;
40717;SDS011;26405;51.850;-2.246;2023-08-06T05:09:38;5.57;;;2.20;;
40717;SDS011;26405;51.850;-2.246;2023-08-06T05:12:04;5.22;;;2.22;;
40717;SDS011;26405;51.850;-2.246;2023-08-06T05:14:29;6.53;;;2.10;;
40717;SDS011;26405;51.850;-2.246;2023-08-06T05:16:55;4.25;;;2.25;;
40717;SDS011;26405;51.850;-2.246;2023-08-06T05:19:22;4.50;;;2.05;;
40717;SDS011;26405;51.850;-2.246;2023-08-06T05:24:12;5.05;;;2.30;;
40717;SDS011;26405;51.850;-2.246;2023-08-06T05:26:38;3.72;;;2.15;;
40717;SDS011;26405;51.850;-2.246;2023-08-06T05:29:03;7.38;;;2.20;;
40717;SDS011;26405;51.850;-2.246;2023-08-06T05:31:28;3.47;;;2.20;;
40717;SDS011;26405;51.850;-2.246;2023-08-06T05:33:54;4.85;;;2.50;;
40717;SDS011;26405;51.850;-2.246;2023-08-06T05:36:19;4.07;;;2.20;;
40717;SDS011;26405;51.850;-2.246;2023-08-06T05:38:45;4.30;;;2.30;;
40717;SDS011;26405;51.850;-2.246;2023-08-06T05:41:10;7.68;;;2.20;;
40717;SDS011;26405;51.850;-2.246;2023-08-06T05:43:35;4.72;;;2.40;;
40717;SDS011;26405;51.850;-2.246;2023-08-06T05:46:00;4.75;;;2.30;;
40717;SDS011;26405;51.850;-2.246;2023-08-06T05:48:26;7.28;;;2.20;;
40717;SDS011;26405;51.850;-2.246;2023-08-06T05:50:52;4.07;;;2.08;;
40717;SDS011;26405;51.850;-2.246;2023-08-06T05:53:18;4.82;;;2.20;;
40717;SDS011;26405;51.850;-2.246;2023-08-06T05:55:43;4.95;;;2.20;;
40717;SDS011;26405;51.850;-2.246;2023-08-06T05:58:09;5.07;;;2.20;;
40717;SDS011;26405;51.850;-2.246;2023-08-06T06:00:35;5.13;;;2.38;;
40717;SDS011;26405;51.850;-2.246;2023-08-06T06:03:00;5.13;;;2.25;;
40717;SDS011;26405;51.850;-2.246;2023-08-06T06:05:25;5.10;;;2.30;;
40717;SDS011;26405;51.850;-2.246;2023-08-06T06:07:51;6.50;;;2.20;;
40717;SDS011;26405;51.850;-2.246;2023-08-06T06:10:16;5.53;;;2.25;;
40717;SDS011;26405;51.850;-2.246;2023-08-06T06:12:41;4.00;;;2.08;;
40717;SDS011;26405;51.850;-2.246;2023-08-06T06:15:07;4.63;;;1.95;;
40717;SDS011;26405;51.850;-2.246;2023-08-06T06:17:32;8.25;;;2.25;;
40717;SDS011;26405;51.850;-2.246;2023-08-06T06:19:57;5.90;;;2.00;;
40717;SDS011;26405;51.850;-2.246;2023-08-06T06:22:22;5.30;;;2.10;;
40717;SDS011;26405;51.850;-2.246;2023-08-06T06:24:48;4.82;;;2.15;;
40717;SDS011;26405;51.850;-2.246;2023-08-06T06:27:13;2.88;;;1.90;;
40717;SDS011;26405;51.850;-2.246;2023-08-06T06:29:38;3.88;;;2.15;;
40717;SDS011;26405;51.850;-2.246;2023-08-06T06:32:04;6.07;;;2.10;;
40717;SDS011;26405;51.850;-2.246;2023-08-06T06:34:29;5.10;;;2.13;;
40717;SDS011;26405;51.850;-2.246;2023-08-06T06:36:54;4.70;;;2.17;;
40717;SDS011;26405;51.850;-2.246;2023-08-06T06:39:20;6.70;;;2.30;;
40717;SDS011;26405;51.850;-2.246;2023-08-06T06:41:45;2.15;;;1.95;;
40717;SDS011;26405;51.850;-2.246;2023-08-06T06:44:11;5.15;;;2.30;;
40717;SDS011;26405;51.850;-2.246;2023-08-06T06:46:36;3.20;;;1.95;;
40717;SDS011;26405;51.850;-2.246;2023-08-06T06:49:01;7.32;;;2.22;;
40717;SDS011;26405;51.850;-2.246;2023-08-06T06:51:26;5.03;;;1.98;;
40717;SDS011;26405;51.850;-2.246;2023-08-06T06:53:52;5.68;;;1.85;;
40717;SDS011;26405;51.850;-2.246;2023-08-06T06:56:17;7.57;;;2.40;;
40717;SDS011;26405;51.850;-2.246;2023-08-06T06:58:42;5.18;;;1.98;;
40717;SDS011;26405;51.850;-2.246;2023-08-06T07:01:08;4.00;;;1.98;;
40717;SDS011;26405;51.850;-2.246;2023-08-06T07:03:35;2.65;;;1.80;;
40717;SDS011;26405;51.850;-2.246;2023-08-06T07:06:00;4.28;;;1.80;;
40717;SDS011;26405;51.850;-2.246;2023-08-06T07:08:25;2.38;;;1.80;;
40717;SDS011;26405;51.850;-2.246;2023-08-06T07:10:50;5.88;;;2.00;;
40717;SDS011;26405;51.850;-2.246;2023-08-06T07:13:16;1.75;;;1.65;;
40717;SDS011;26405;51.850;-2.246;2023-08-06T07:15:41;2.70;;;1.77;;
40717;SDS011;26405;51.850;-2.246;2023-08-06T07:18:07;2.70;;;1.90;;
40717;SDS011;26405;51.850;-2.246;2023-08-06T07:20:32;2.10;;;1.80;;
40717;SDS011;26405;51.850;-2.246;2023-08-06T07:25:24;2.13;;;1.70;;
40717;SDS011;26405;51.850;-2.246;2023-08-06T07:27:49;6.22;;;1.70;;
40717;SDS011;26405;51.850;-2.246;2023-08-06T07:30:14;2.72;;;1.67;;
40717;SDS011;26405;51.850;-2.246;2023-08-06T07:32:40;2.80;;;1.67;;
40717;SDS011;26405;51.850;-2.246;2023-08-06T07:35:05;3.53;;;1.48;;
40717;SDS011;26405;51.850;-2.246;2023-08-06T07:37:30;2.63;;;1.50;;
40717;SDS011;26405;51.850;-2.246;2023-08-06T07:39:56;2.45;;;1.40;;
40717;SDS011;26405;51.850;-2.246;2023-08-06T07:42:21;2.45;;;1.55;;
40717;SDS011;26405;51.850;-2.246;2023-08-06T07:44:51;2.37;;;1.60;;
40717;SDS011;26405;51.850;-2.246;2023-08-06T07:47:17;3.05;;;1.60;;
40717;SDS011;26405;51.850;-2.246;2023-08-06T07:49:42;2.00;;;1.40;;
40717;SDS011;26405;51.850;-2.246;2023-08-06T07:52:08;2.50;;;1.63;;
40717;SDS011;26405;51.850;-2.246;2023-08-06T07:54:33;3.92;;;1.90;;
40717;SDS011;26405;51.850;-2.246;2023-08-06T07:56:58;5.28;;;1.52;;
40717;SDS011;26405;51.850;-2.246;2023-08-06T07:59:23;1.93;;;1.47;;
40717;SDS011;26405;51.850;-2.246;2023-08-06T08:01:48;1.65;;;1.42;;
40717;SDS011;26405;51.850;-2.246;2023-08-06T08:04:14;3.50;;;1.52;;
40717;SDS011;26405;51.850;-2.246;2023-08-06T08:06:39;3.27;;;1.80;;
40717;SDS011;26405;51.850;-2.246;2023-08-06T08:09:04;2.17;;;1.60;;
40717;SDS011;26405;51.850;-2.246;2023-08-06T08:11:29;3.17;;;1.60;;
40717;SDS011;26405;51.850;-2.246;2023-08-06T08:13:55;3.30;;;1.60;;
40717;SDS011;26405;51.850;-2.246;2023-08-06T08:16:20;3.03;;;1.40;;
40717;SDS011;26405;51.850;-2.246;2023-08-06T08:18:45;3.83;;;1.90;;
40717;SDS011;26405;51.850;-2.246;2023-08-06T08:21:10;2.80;;;1.40;;
40717;SDS011;26405;51.850;-2.246;2023-08-06T08:23:36;2.10;;;1.53;;
40717;SDS011;26405;51.850;-2.246;2023-08-06T08:26:01;4.72;;;1.52;;
40717;SDS011;26405;51.850;-2.246;2023-08-06T08:28:27;4.73;;;1.90;;
40717;SDS011;26405;51.850;-2.246;2023-08-06T08:30:52;2.47;;;1.70;;
40717;SDS011;26405;51.850;-2.246;2023-08-06T08:33:17;3.93;;;1.40;;
40717;SDS011;26405;51.850;-2.246;2023-08-06T08:35:45;2.63;;;1.57;;
40717;SDS011;26405;51.850;-2.246;2023-08-06T08:38:10;5.18;;;1.88;;
40717;SDS011;26405;51.850;-2.246;2023-08-06T08:40:37;1.63;;;1.40;;
40717;SDS011;26405;51.850;-2.246;2023-08-06T08:43:04;3.83;;;1.50;;
40717;SDS011;26405;51.850;-2.246;2023-08-06T08:45:30;1.87;;;1.30;;
40717;SDS011;26405;51.850;-2.246;2023-08-06T08:47:57;3.10;;;1.48;;
40717;SDS011;26405;51.850;-2.246;2023-08-06T08:50:24;1.97;;;1.47;;
40717;SDS011;26405;51.850;-2.246;2023-08-06T08:52:49;4.60;;;1.50;;
40717;SDS011;26405;51.850;-2.246;2023-08-06T08:55:15;1.60;;;1.40;;
40717;SDS011;26405;51.850;-2.246;2023-08-06T08:57:41;1.63;;;1.50;;
40717;SDS011;26405;51.850;-2.246;2023-08-06T09:00:07;1.67;;;1.43;;
40717;SDS011;26405;51.850;-2.246;2023-08-06T09:02:33;3.23;;;1.63;;
40717;SDS011;26405;51.850;-2.246;2023-08-06T09:04:59;2.73;;;1.73;;
40717;SDS011;26405;51.850;-2.246;2023-08-06T09:07:27;1.95;;;1.60;;
40717;SDS011;26405;51.850;-2.246;2023-08-06T09:09:54;2.58;;;1.80;;
40717;SDS011;26405;51.850;-2.246;2023-08-06T09:12:22;5.40;;;1.70;;
40717;SDS011;26405;51.850;-2.246;2023-08-06T09:14:48;1.50;;;1.40;;
40717;SDS011;26405;51.850;-2.246;2023-08-06T09:17:13;4.13;;;1.80;;
40717;SDS011;26405;51.850;-2.246;2023-08-06T09:19:42;3.30;;;1.60;;
40717;SDS011;26405;51.850;-2.246;2023-08-06T09:22:11;1.75;;;1.40;;
40717;SDS011;26405;51.850;-2.246;2023-08-06T09:24:38;2.30;;;1.50;;
40717;SDS011;26405;51.850;-2.246;2023-08-06T09:27:04;2.58;;;1.60;;
40717;SDS011;26405;51.850;-2.246;2023-08-06T09:29:30;3.07;;;1.60;;
40717;SDS011;26405;51.850;-2.246;2023-08-06T09:31:56;1.75;;;1.52;;
40717;SDS011;26405;51.850;-2.246;2023-08-06T09:34:22;1.98;;;1.48;;
40717;SDS011;26405;51.850;-2.246;2023-08-06T09:36:48;1.33;;;1.23;;
40717;SDS011;26405;51.850;-2.246;2023-08-06T09:39:14;1.92;;;1.27;;
40717;SDS011;26405;51.850;-2.246;2023-08-06T09:41:40;3.15;;;1.60;;
40717;SDS011;26405;51.850;-2.246;2023-08-06T09:44:10;3.67;;;1.60;;
40717;SDS011;26405;51.850;-2.246;2023-08-06T09:46:40;1.33;;;1.23;;
40717;SDS011;26405;51.850;-2.246;2023-08-06T09:49:05;3.13;;;1.50;;
40717;SDS011;26405;51.850;-2.246;2023-08-06T09:51:33;1.58;;;1.48;;
40717;SDS011;26405;51.850;-2.246;2023-08-06T09:53:59;1.85;;;1.55;;
40717;SDS011;26405;51.850;-2.246;2023-08-06T09:58:51;1.60;;;1.27;;
40717;SDS011;26405;51.850;-2.246;2023-08-06T10:01:17;1.40;;;1.30;;
40717;SDS011;26405;51.850;-2.246;2023-08-06T10:03:44;1.67;;;1.50;;
40717;SDS011;26405;51.850;-2.246;2023-08-06T10:06:09;2.13;;;1.43;;
40717;SDS011;26405;51.850;-2.246;2023-08-06T10:08:35;1.70;;;1.27;;
40717;SDS011;26405;51.850;-2.246;2023-08-06T10:11:01;3.17;;;1.57;;
40717;SDS011;26405;51.850;-2.246;2023-08-06T10:13:30;1.60;;;1.50;;
40717;SDS011;26405;51.850;-2.246;2023-08-06T10:15:55;1.43;;;1.33;;
40717;SDS011;26405;51.850;-2.246;2023-08-06T10:18:21;3.63;;;1.83;;
40717;SDS011;26405;51.850;-2.246;2023-08-06T10:20:47;1.45;;;1.35;;
40717;SDS011;26405;51.850;-2.246;2023-08-06T10:23:13;1.33;;;1.27;;
40717;SDS011;26405;51.850;-2.246;2023-08-06T10:25:42;2.95;;;1.67;;
40717;SDS011;26405;51.850;-2.246;2023-08-06T10:28:08;3.42;;;1.90;;
40717;SDS011;26405;51.850;-2.246;2023-08-06T10:30:36;1.80;;;1.48;;
40717;SDS011;26405;51.850;-2.246;2023-08-06T10:33:06;2.03;;;1.45;;
40717;SDS011;26405;51.850;-2.246;2023-08-06T10:37:58;1.70;;;1.60;;
40717;SDS011;26405;51.850;-2.246;2023-08-06T10:40:23;1.63;;;1.25;;
40717;SDS011;26405;51.850;-2.246;2023-08-06T10:42:49;1.70;;;1.25;;
40717;SDS011;26405;51.850;-2.246;2023-08-06T10:45:15;2.20;;;1.33;;
40717;SDS011;26405;51.850;-2.246;2023-08-06T10:47:41;2.63;;;1.45;;
40717;SDS011;26405;51.850;-2.246;2023-08-06T10:50:07;2.63;;;1.33;;
40717;SDS011;26405;51.850;-2.246;2023-08-06T10:52:36;4.43;;;1.52;;
40717;SDS011;26405;51.850;-2.246;2023-08-06T10:55:01;1.50;;;1.40;;
40717;SDS011;26405;51.850;-2.246;2023-08-06T10:57:27;1.17;;;1.00;;
40717;SDS011;26405;51.850;-2.246;2023-08-06T10:59:53;1.58;;;1.45;;
40717;SDS011;26405;51.850;-2.246;2023-08-06T11:02:19;2.17;;;1.40;;
40717;SDS011;26405;51.850;-2.246;2023-08-06T11:04:44;4.60;;;1.30;;
40717;SDS011;26405;51.850;-2.246;2023-08-06T11:07:10;1.67;;;1.57;;
40717;SDS011;26405;51.850;-2.246;2023-08-06T11:09:35;1.63;;;1.30;;
40717;SDS011;26405;51.850;-2.246;2023-08-06T11:12:01;3.13;;;1.80;;
40717;SDS011;26405;51.850;-2.246;2023-08-06T11:14:26;2.20;;;1.37;;
40717;SDS011;26405;51.850;-2.246;2023-08-06T11:16:51;1.40;;;1.30;;
40717;SDS011;26405;51.850;-2.246;2023-08-06T11:19:17;1.70;;;1.47;;
40717;SDS011;26405;51.850;-2.246;2023-08-06T11:21:43;1.40;;;1.30;;
40717;SDS011;26405;51.850;-2.246;2023-08-06T11:24:10;2.75;;;1.30;;
40717;SDS011;26405;51.850;-2.246;2023-08-06T11:26:36;1.77;;;1.27;;
40717;SDS011;26405;51.850;-2.246;2023-08-06T11:29:01;4.13;;;1.48;;
40717;SDS011;26405;51.850;-2.246;2023-08-06T11:31:27;1.55;;;1.45;;
40717;SDS011;26405;51.850;-2.246;2023-08-06T11:33:53;1.50;;;1.30;;
40717;SDS011;26405;51.850;-2.246;2023-08-06T11:36:39;1.85;;;1.30;;
40717;SDS011;26405;51.850;-2.246;2023-08-06T11:39:05;2.15;;;1.60;;
40717;SDS011;26405;51.850;-2.246;2023-08-06T11:41:31;2.00;;;1.33;;
40717;SDS011;26405;51.850;-2.246;2023-08-06T11:43:56;1.57;;;1.27;;
40717;SDS011;26405;51.850;-2.246;2023-08-06T11:46:22;4.60;;;1.43;;
40717;SDS011;26405;51.850;-2.246;2023-08-06T11:48:57;1.75;;;1.15;;
40717;SDS011;26405;51.850;-2.246;2023-08-06T11:51:23;2.45;;;1.40;;
40717;SDS011;26405;51.850;-2.246;2023-08-06T11:53:49;1.15;;;1.00;;
40717;SDS011;26405;51.850;-2.246;2023-08-06T11:56:15;1.23;;;1.17;;
40717;SDS011;26405;51.850;-2.246;2023-08-06T11:58:41;1.80;;;1.47;;
40717;SDS011;26405;51.850;-2.246;2023-08-06T12:01:06;1.63;;;1.30;;
40717;SDS011;26405;51.850;-2.246;2023-08-06T12:03:31;1.50;;;1.40;;
40717;SDS011;26405;51.850;-2.246;2023-08-06T12:05:57;2.27;;;1.10;;
40717;SDS011;26405;51.850;-2.246;2023-08-06T12:08:25;1.30;;;1.20;;
40717;SDS011;26405;51.850;-2.246;2023-08-06T12:10:51;1.45;;;1.33;;
40717;SDS011;26405;51.850;-2.246;2023-08-06T12:13:18;1.20;;;1.10;;
40717;SDS011;26405;51.850;-2.246;2023-08-06T12:15:44;1.10;;;1.10;;
40717;SDS011;26405;51.850;-2.246;2023-08-06T12:18:09;2.30;;;1.33;;
40717;SDS011;26405;51.850;-2.246;2023-08-06T12:20:35;1.20;;;1.13;;
40717;SDS011;26405;51.850;-2.246;2023-08-06T12:23:00;1.13;;;1.13;;
40717;SDS011;26405;51.850;-2.246;2023-08-06T12:25:25;3.43;;;1.50;;
40717;SDS011;26405;51.850;-2.246;2023-08-06T12:27:50;1.37;;;1.27;;
40717;SDS011;26405;51.850;-2.246;2023-08-06T12:30:16;2.10;;;1.23;;
40717;SDS011;26405;51.850;-2.246;2023-08-06T12:32:41;1.80;;;1.50;;
40717;SDS011;26405;51.850;-2.246;2023-08-06T12:35:06;1.70;;;1.60;;
40717;SDS011;26405;51.850;-2.246;2023-08-06T12:37:32;1.73;;;1.50;;
40717;SDS011;26405;51.850;-2.246;2023-08-06T12:39:57;1.60;;;1.50;;
40717;SDS011;26405;51.850;-2.246;2023-08-06T12:42:23;2.57;;;1.87;;
40717;SDS011;26405;51.850;-2.246;2023-08-06T12:44:49;2.10;;;1.20;;
40717;SDS011;26405;51.850;-2.246;2023-08-06T12:47:15;2.90;;;1.27;;
40717;SDS011;26405;51.850;-2.246;2023-08-06T12:49:40;1.83;;;1.63;;
40717;SDS011;26405;51.850;-2.246;2023-08-06T12:52:06;1.40;;;1.27;;
40717;SDS011;26405;51.850;-2.246;2023-08-06T12:54:32;2.15;;;1.48;;
40717;SDS011;26405;51.850;-2.246;2023-08-06T12:57:04;1.83;;;1.60;;
40717;SDS011;26405;51.850;-2.246;2023-08-06T12:59:29;3.03;;;1.30;;
40717;SDS011;26405;51.850;-2.246;2023-08-06T13:01:55;1.33;;;1.13;;
40717;SDS011;26405;51.850;-2.246;2023-08-06T13:04:20;1.13;;;1.10;;
40717;SDS011;26405;51.850;-2.246;2023-08-06T13:06:45;2.07;;;1.20;;
40717;SDS011;26405;51.850;-2.246;2023-08-06T13:09:11;1.80;;;1.60;;
40717;SDS011;26405;51.850;-2.246;2023-08-06T13:11:39;1.43;;;1.40;;
40717;SDS011;26405;51.850;-2.246;2023-08-06T13:14:06;1.92;;;1.48;;
40717;SDS011;26405;51.850;-2.246;2023-08-06T13:16:32;2.10;;;1.35;;
40717;SDS011;26405;51.850;-2.246;2023-08-06T13:18:57;1.15;;;1.15;;
40717;SDS011;26405;51.850;-2.246;2023-08-06T13:21:23;1.40;;;1.30;;
40717;SDS011;26405;51.850;-2.246;2023-08-06T13:23:48;2.87;;;1.33;;
40717;SDS011;26405;51.850;-2.246;2023-08-06T13:26:13;2.27;;;1.20;;
40717;SDS011;26405;51.850;-2.246;2023-08-06T13:28:40;1.42;;;1.30;;
40717;SDS011;26405;51.850;-2.246;2023-08-06T13:31:06;1.20;;;1.10;;
40717;SDS011;26405;51.850;-2.246;2023-08-06T13:33:31;1.57;;;1.47;;
40717;SDS011;26405;51.850;-2.246;2023-08-06T13:35:56;1.43;;;1.37;;
40717;SDS011;26405;51.850;-2.246;2023-08-06T13:38:22;2.77;;;1.43;;
40717;SDS011;26405;51.850;-2.246;2023-08-06T13:40:47;1.43;;;1.33;;
40717;SDS011;26405;51.850;-2.246;2023-08-06T13:43:13;1.80;;;1.40;;
40717;SDS011;26405;51.850;-2.246;2023-08-06T13:45:38;1.50;;;1.40;;
40717;SDS011;26405;51.850;-2.246;2023-08-06T13:48:03;2.23;;;1.37;;
40717;SDS011;26405;51.850;-2.246;2023-08-06T13:50:29;1.57;;;1.40;;
40717;SDS011;26405;51.850;-2.246;2023-08-06T13:52:54;2.33;;;1.70;;
40717;SDS011;26405;51.850;-2.246;2023-08-06T13:55:20;5.07;;;1.60;;
40717;SDS011;26405;51.850;-2.246;2023-08-06T13:57:46;1.27;;;1.27;;
40717;SDS011;26405;51.850;-2.246;2023-08-06T14:00:11;2.17;;;1.50;;
40717;SDS011;26405;51.850;-2.246;2023-08-06T14:02:36;2.93;;;1.43;;
40717;SDS011;26405;51.850;-2.246;2023-08-06T14:05:02;1.80;;;1.53;;
40717;SDS011;26405;51.850;-2.246;2023-08-06T14:07:27;1.77;;;1.50;;
40717;SDS011;26405;51.850;-2.246;2023-08-06T14:09:52;2.10;;;1.40;;
40717;SDS011;26405;51.850;-2.246;2023-08-06T14:12:18;1.60;;;1.37;;
40717;SDS011;26405;51.850;-2.246;2023-08-06T14:14:44;1.33;;;1.27;;
40717;SDS011;26405;51.850;-2.246;2023-08-06T14:17:09;1.35;;;1.25;;
40717;SDS011;26405;51.850;-2.246;2023-08-06T14:19:35;1.40;;;1.30;;
40717;SDS011;26405;51.850;-2.246;2023-08-06T14:22:00;1.60;;;1.33;;
40717;SDS011;26405;51.850;-2.246;2023-08-06T14:24:25;1.53;;;1.43;;
40717;SDS011;26405;51.850;-2.246;2023-08-06T14:26:50;2.10;;;1.63;;
40717;SDS011;26405;51.850;-2.246;2023-08-06T14:29:16;3.03;;;1.80;;
40717;SDS011;26405;51.850;-2.246;2023-08-06T14:31:42;1.50;;;1.40;;
40717;SDS011;26405;51.850;-2.246;2023-08-06T14:34:07;2.10;;;1.60;;
40717;SDS011;26405;51.850;-2.246;2023-08-06T14:36:32;1.40;;;1.30;;
40717;SDS011;26405;51.850;-2.246;2023-08-06T14:38:57;1.67;;;1.57;;
40717;SDS011;26405;51.850;-2.246;2023-08-06T14:41:23;1.70;;;1.33;;
40717;SDS011;26405;51.850;-2.246;2023-08-06T14:43:49;2.83;;;1.63;;
40717;SDS011;26405;51.850;-2.246;2023-08-06T14:46:15;2.50;;;1.50;;
40717;SDS011;26405;51.850;-2.246;2023-08-06T14:48:40;2.23;;;1.53;;
40717;SDS011;26405;51.850;-2.246;2023-08-06T14:51:05;2.20;;;1.53;;